sensor_id;sensor_type;location;lat;lon;timestamp;temperature;humidity
44461;DHT22;30162;53.642;10.640;2022-11-11T00:02:23;16.20;85.60
44461;DHT22;30162;53.642;10.640;2022-11-11T00:04:48;16.20;85.60
44461;DHT22;30162;53.642;10.640;2022-11-11T00:07:14;16.20;85.60
44461;DHT22;30162;53.642;10.640;2022-11-11T00:09:39;16.20;85.60
44461;DHT22;30162;53.642;10.640;2022-11-11T00:12:05;16.30;85.70
44461;DHT22;30162;53.642;10.640;2022-11-11T00:14:30;16.30;85.40
44461;DHT22;30162;53.642;10.640;2022-11-11T00:16:56;16.30;85.50
44461;DHT22;30162;53.642;10.640;2022-11-11T00:19:40;16.40;85.20
44461;DHT22;30162;53.642;10.640;2022-11-11T00:22:24;16.30;85.70
44461;DHT22;30162;53.642;10.640;2022-11-11T00:25:09;16.40;85.40
44461;DHT22;30162;53.642;10.640;2022-11-11T00:27:37;16.50;85.10
44461;DHT22;30162;53.642;10.640;2022-11-11T00:30:03;16.40;85.50
44461;DHT22;30162;53.642;10.640;2022-11-11T00:32:31;16.30;85.30
44461;DHT22;30162;53.642;10.640;2022-11-11T00:34:58;16.10;85.30
44461;DHT22;30162;53.642;10.640;2022-11-11T00:37:45;16.20;86.10
44461;DHT22;30162;53.642;10.640;2022-11-11T00:40:11;16.30;85.70
44461;DHT22;30162;53.642;10.640;2022-11-11T00:42:38;16.20;85.60
44461;DHT22;30162;53.642;10.640;2022-11-11T00:45:04;15.90;86.30
44461;DHT22;30162;53.642;10.640;2022-11-11T00:47:30;15.90;86.80
44461;DHT22;30162;53.642;10.640;2022-11-11T00:53:02;16.00;86.90
44461;DHT22;30162;53.642;10.640;2022-11-11T00:55:29;15.80;86.60
44461;DHT22;30162;53.642;10.640;2022-11-11T00:57:54;16.00;86.60
44461;DHT22;30162;53.642;10.640;2022-11-11T01:00:20;16.30;86.20
44461;DHT22;30162;53.642;10.640;2022-11-11T01:02:45;16.20;85.90
44461;DHT22;30162;53.642;10.640;2022-11-11T01:05:11;16.10;86.40
44461;DHT22;30162;53.642;10.640;2022-11-11T01:07:36;16.30;86.00
44461;DHT22;30162;53.642;10.640;2022-11-11T01:10:02;16.30;85.70
44461;DHT22;30162;53.642;10.640;2022-11-11T01:12:28;16.10;86.10
44461;DHT22;30162;53.642;10.640;2022-11-11T01:14:53;16.00;86.80
44461;DHT22;30162;53.642;10.640;2022-11-11T01:17:19;15.90;86.10
44461;DHT22;30162;53.642;10.640;2022-11-11T01:19:44;15.60;87.10
44461;DHT22;30162;53.642;10.640;2022-11-11T01:22:10;15.80;87.00
44461;DHT22;30162;53.642;10.640;2022-11-11T01:24:36;15.90;86.60
44461;DHT22;30162;53.642;10.640;2022-11-11T01:27:02;16.10;86.50
44461;DHT22;30162;53.642;10.640;2022-11-11T01:29:28;16.00;86.70
44461;DHT22;30162;53.642;10.640;2022-11-11T01:31:53;16.10;86.30
44461;DHT22;30162;53.642;10.640;2022-11-11T01:34:19;16.10;86.10
44461;DHT22;30162;53.642;10.640;2022-11-11T01:36:44;15.80;86.70
44461;DHT22;30162;53.642;10.640;2022-11-11T01:39:10;15.90;87.20
44461;DHT22;30162;53.642;10.640;2022-11-11T01:41:35;16.00;86.80
44461;DHT22;30162;53.642;10.640;2022-11-11T01:46:44;15.50;87.40
44461;DHT22;30162;53.642;10.640;2022-11-11T01:49:26;15.40;88.30
44461;DHT22;30162;53.642;10.640;2022-11-11T01:54:42;15.90;87.10
44461;DHT22;30162;53.642;10.640;2022-11-11T01:57:18;16.00;86.90
44461;DHT22;30162;53.642;10.640;2022-11-11T01:59:48;15.90;87.10
44461;DHT22;30162;53.642;10.640;2022-11-11T02:02:28;15.80;87.70
44461;DHT22;30162;53.642;10.640;2022-11-11T02:04:56;15.90;87.40
44461;DHT22;30162;53.642;10.640;2022-11-11T02:08:04;15.90;86.70
44461;DHT22;30162;53.642;10.640;2022-11-11T02:10:32;15.90;87.10
44461;DHT22;30162;53.642;10.640;2022-11-11T02:12:58;15.90;87.20
44461;DHT22;30162;53.642;10.640;2022-11-11T02:15:43;16.10;86.90
44461;DHT22;30162;53.642;10.640;2022-11-11T02:18:09;16.00;86.80
44461;DHT22;30162;53.642;10.640;2022-11-11T02:20:37;16.20;87.10
44461;DHT22;30162;53.642;10.640;2022-11-11T02:25:37;16.20;86.90
44461;DHT22;30162;53.642;10.640;2022-11-11T02:28:05;15.90;87.10
44461;DHT22;30162;53.642;10.640;2022-11-11T02:30:32;16.20;87.00
44461;DHT22;30162;53.642;10.640;2022-11-11T02:32:58;16.30;86.50
44461;DHT22;30162;53.642;10.640;2022-11-11T02:35:32;16.30;86.60
44461;DHT22;30162;53.642;10.640;2022-11-11T02:37:58;16.20;86.70
44461;DHT22;30162;53.642;10.640;2022-11-11T02:40:38;15.90;87.60
44461;DHT22;30162;53.642;10.640;2022-11-11T02:43:24;15.90;87.60
44461;DHT22;30162;53.642;10.640;2022-11-11T02:45:49;15.80;87.80
44461;DHT22;30162;53.642;10.640;2022-11-11T02:48:15;15.70;87.70
44461;DHT22;30162;53.642;10.640;2022-11-11T02:50:40;15.70;87.90
44461;DHT22;30162;53.642;10.640;2022-11-11T02:53:06;15.80;87.90
44461;DHT22;30162;53.642;10.640;2022-11-11T02:55:31;15.90;87.20
44461;DHT22;30162;53.642;10.640;2022-11-11T02:57:57;16.00;87.10
44461;DHT22;30162;53.642;10.640;2022-11-11T03:00:22;16.00;87.40
44461;DHT22;30162;53.642;10.640;2022-11-11T03:02:48;16.00;87.50
44461;DHT22;30162;53.642;10.640;2022-11-11T03:05:14;16.00;87.40
44461;DHT22;30162;53.642;10.640;2022-11-11T03:07:39;15.90;87.10
44461;DHT22;30162;53.642;10.640;2022-11-11T03:10:05;16.00;87.20
44461;DHT22;30162;53.642;10.640;2022-11-11T03:12:31;15.90;87.40
44461;DHT22;30162;53.642;10.640;2022-11-11T03:14:56;15.80;87.30
44461;DHT22;30162;53.642;10.640;2022-11-11T03:17:22;15.70;87.80
44461;DHT22;30162;53.642;10.640;2022-11-11T03:20:10;15.80;87.80
44461;DHT22;30162;53.642;10.640;2022-11-11T03:23:19;15.60;87.90
44461;DHT22;30162;53.642;10.640;2022-11-11T03:25:46;15.80;87.70
44461;DHT22;30162;53.642;10.640;2022-11-11T03:28:17;15.90;87.70
44461;DHT22;30162;53.642;10.640;2022-11-11T03:30:45;15.90;87.60
44461;DHT22;30162;53.642;10.640;2022-11-11T03:33:11;16.00;87.40
44461;DHT22;30162;53.642;10.640;2022-11-11T03:35:38;16.00;87.20
44461;DHT22;30162;53.642;10.640;2022-11-11T03:38:05;15.70;87.70
44461;DHT22;30162;53.642;10.640;2022-11-11T03:40:54;15.30;88.90
44461;DHT22;30162;53.642;10.640;2022-11-11T03:43:28;15.50;88.80
44461;DHT22;30162;53.642;10.640;2022-11-11T03:45:56;15.70;88.20
44461;DHT22;30162;53.642;10.640;2022-11-11T03:48:25;15.80;87.90
44461;DHT22;30162;53.642;10.640;2022-11-11T03:50:51;15.90;87.70
44461;DHT22;30162;53.642;10.640;2022-11-11T03:53:17;16.00;87.60
44461;DHT22;30162;53.642;10.640;2022-11-11T03:55:45;15.80;87.80
44461;DHT22;30162;53.642;10.640;2022-11-11T03:58:11;15.80;87.80
44461;DHT22;30162;53.642;10.640;2022-11-11T04:00:36;15.90;87.80
44461;DHT22;30162;53.642;10.640;2022-11-11T04:03:08;15.90;87.80
44461;DHT22;30162;53.642;10.640;2022-11-11T04:05:52;15.80;87.90
44461;DHT22;30162;53.642;10.640;2022-11-11T04:08:36;15.90;88.00
44461;DHT22;30162;53.642;10.640;2022-11-11T04:11:24;15.90;87.80
44461;DHT22;30162;53.642;10.640;2022-11-11T04:13:52;16.00;87.80
44461;DHT22;30162;53.642;10.640;2022-11-11T04:16:37;15.90;87.90
44461;DHT22;30162;53.642;10.640;2022-11-11T04:19:02;15.60;88.20
44461;DHT22;30162;53.642;10.640;2022-11-11T04:21:46;15.40;89.00
44461;DHT22;30162;53.642;10.640;2022-11-11T04:24:17;15.60;88.80
44461;DHT22;30162;53.642;10.640;2022-11-11T04:27:04;15.80;88.20
44461;DHT22;30162;53.642;10.640;2022-11-11T04:29:30;15.90;87.80
44461;DHT22;30162;53.642;10.640;2022-11-11T04:32:18;15.90;87.40
44461;DHT22;30162;53.642;10.640;2022-11-11T04:35:12;15.70;87.90
44461;DHT22;30162;53.642;10.640;2022-11-11T04:37:46;15.90;87.90
44461;DHT22;30162;53.642;10.640;2022-11-11T04:40:14;15.60;87.80
44461;DHT22;30162;53.642;10.640;2022-11-11T04:42:59;15.70;88.10
44461;DHT22;30162;53.642;10.640;2022-11-11T04:45:24;15.80;87.60
44461;DHT22;30162;53.642;10.640;2022-11-11T04:50:29;16.00;87.00
44461;DHT22;30162;53.642;10.640;2022-11-11T04:52:55;15.90;87.10
44461;DHT22;30162;53.642;10.640;2022-11-11T04:55:21;15.80;87.40
44461;DHT22;30162;53.642;10.640;2022-11-11T04:58:07;15.90;87.40
44461;DHT22;30162;53.642;10.640;2022-11-11T05:00:33;15.90;87.10
44461;DHT22;30162;53.642;10.640;2022-11-11T05:02:58;15.90;86.80
44461;DHT22;30162;53.642;10.640;2022-11-11T05:05:57;15.90;86.90
44461;DHT22;30162;53.642;10.640;2022-11-11T05:08:43;15.80;87.10
44461;DHT22;30162;53.642;10.640;2022-11-11T05:11:22;15.20;88.30
44461;DHT22;30162;53.642;10.640;2022-11-11T05:13:49;15.50;88.50
44461;DHT22;30162;53.642;10.640;2022-11-11T05:16:40;15.70;88.20
44461;DHT22;30162;53.642;10.640;2022-11-11T05:19:25;15.60;87.80
44461;DHT22;30162;53.642;10.640;2022-11-11T05:22:11;15.60;88.10
44461;DHT22;30162;53.642;10.640;2022-11-11T05:24:37;15.60;88.10
44461;DHT22;30162;53.642;10.640;2022-11-11T05:27:21;15.60;87.90
44461;DHT22;30162;53.642;10.640;2022-11-11T05:29:47;15.60;87.80
44461;DHT22;30162;53.642;10.640;2022-11-11T05:32:20;15.60;87.80
44461;DHT22;30162;53.642;10.640;2022-11-11T05:34:46;15.60;87.70
44461;DHT22;30162;53.642;10.640;2022-11-11T05:37:12;15.50;88.00
44461;DHT22;30162;53.642;10.640;2022-11-11T05:39:38;15.60;87.90
44461;DHT22;30162;53.642;10.640;2022-11-11T05:42:04;15.60;87.70
44461;DHT22;30162;53.642;10.640;2022-11-11T05:44:30;15.40;87.90
44461;DHT22;30162;53.642;10.640;2022-11-11T05:46:55;15.40;88.00
44461;DHT22;30162;53.642;10.640;2022-11-11T05:49:21;15.50;88.20
44461;DHT22;30162;53.642;10.640;2022-11-11T05:51:48;15.40;87.50
44461;DHT22;30162;53.642;10.640;2022-11-11T05:54:13;15.50;87.80
44461;DHT22;30162;53.642;10.640;2022-11-11T05:56:39;15.50;87.60
44461;DHT22;30162;53.642;10.640;2022-11-11T05:59:06;15.10;88.20
44461;DHT22;30162;53.642;10.640;2022-11-11T06:01:32;15.20;88.50
44461;DHT22;30162;53.642;10.640;2022-11-11T06:03:58;15.10;88.30
44461;DHT22;30162;53.642;10.640;2022-11-11T06:06:24;15.10;88.60
44461;DHT22;30162;53.642;10.640;2022-11-11T06:08:50;15.30;88.50
44461;DHT22;30162;53.642;10.640;2022-11-11T06:11:15;15.10;88.90
44461;DHT22;30162;53.642;10.640;2022-11-11T06:13:41;15.30;88.50
44461;DHT22;30162;53.642;10.640;2022-11-11T06:16:07;15.20;88.40
44461;DHT22;30162;53.642;10.640;2022-11-11T06:18:33;15.30;88.20
44461;DHT22;30162;53.642;10.640;2022-11-11T06:20:59;15.40;87.80
44461;DHT22;30162;53.642;10.640;2022-11-11T06:23:26;15.30;87.80
44461;DHT22;30162;53.642;10.640;2022-11-11T06:25:51;15.40;87.60
44461;DHT22;30162;53.642;10.640;2022-11-11T06:28:36;15.40;87.90
44461;DHT22;30162;53.642;10.640;2022-11-11T06:31:02;15.10;88.50
44461;DHT22;30162;53.642;10.640;2022-11-11T06:33:28;15.00;88.40
44461;DHT22;30162;53.642;10.640;2022-11-11T06:35:53;15.20;88.40
44461;DHT22;30162;53.642;10.640;2022-11-11T06:38:19;15.30;88.30
44461;DHT22;30162;53.642;10.640;2022-11-11T06:40:45;15.20;88.00
44461;DHT22;30162;53.642;10.640;2022-11-11T06:43:11;15.40;88.00
44461;DHT22;30162;53.642;10.640;2022-11-11T06:45:37;15.40;87.80
44461;DHT22;30162;53.642;10.640;2022-11-11T06:48:03;15.30;88.00
44461;DHT22;30162;53.642;10.640;2022-11-11T06:50:33;15.30;88.00
44461;DHT22;30162;53.642;10.640;2022-11-11T06:53:06;15.40;88.10
44461;DHT22;30162;53.642;10.640;2022-11-11T06:55:33;15.10;88.80
44461;DHT22;30162;53.642;10.640;2022-11-11T06:58:10;14.80;89.50
44461;DHT22;30162;53.642;10.640;2022-11-11T07:00:36;15.00;89.20
44461;DHT22;30162;53.642;10.640;2022-11-11T07:03:03;15.00;89.30
44461;DHT22;30162;53.642;10.640;2022-11-11T07:05:29;15.10;89.30
44461;DHT22;30162;53.642;10.640;2022-11-11T07:07:55;14.90;89.40
44461;DHT22;30162;53.642;10.640;2022-11-11T07:10:20;14.90;89.80
44461;DHT22;30162;53.642;10.640;2022-11-11T07:12:46;14.90;90.00
44461;DHT22;30162;53.642;10.640;2022-11-11T07:15:12;15.00;89.70
44461;DHT22;30162;53.642;10.640;2022-11-11T07:17:37;14.80;90.00
44461;DHT22;30162;53.642;10.640;2022-11-11T07:20:03;14.90;90.00
44461;DHT22;30162;53.642;10.640;2022-11-11T07:22:29;14.90;89.60
44461;DHT22;30162;53.642;10.640;2022-11-11T07:24:54;14.90;90.00
44461;DHT22;30162;53.642;10.640;2022-11-11T07:27:20;14.80;90.20
44461;DHT22;30162;53.642;10.640;2022-11-11T07:29:45;14.80;90.20
44461;DHT22;30162;53.642;10.640;2022-11-11T07:32:15;15.10;90.00
44461;DHT22;30162;53.642;10.640;2022-11-11T07:34:42;15.30;89.60
44461;DHT22;30162;53.642;10.640;2022-11-11T07:37:09;15.30;89.40
44461;DHT22;30162;53.642;10.640;2022-11-11T07:39:34;15.30;89.50
44461;DHT22;30162;53.642;10.640;2022-11-11T07:42:00;14.80;90.10
44461;DHT22;30162;53.642;10.640;2022-11-11T07:44:26;14.80;90.40
44461;DHT22;30162;53.642;10.640;2022-11-11T07:46:51;15.20;90.20
44461;DHT22;30162;53.642;10.640;2022-11-11T07:49:17;15.30;90.20
44461;DHT22;30162;53.642;10.640;2022-11-11T07:51:42;15.30;90.00
44461;DHT22;30162;53.642;10.640;2022-11-11T07:54:08;15.20;90.00
44461;DHT22;30162;53.642;10.640;2022-11-11T07:56:33;15.10;90.30
44461;DHT22;30162;53.642;10.640;2022-11-11T07:58:59;15.10;90.30
44461;DHT22;30162;53.642;10.640;2022-11-11T08:01:25;15.30;90.10
44461;DHT22;30162;53.642;10.640;2022-11-11T08:03:50;15.10;90.00
44461;DHT22;30162;53.642;10.640;2022-11-11T08:06:17;15.30;90.10
44461;DHT22;30162;53.642;10.640;2022-11-11T08:08:43;15.40;89.90
44461;DHT22;30162;53.642;10.640;2022-11-11T08:11:09;15.40;90.20
44461;DHT22;30162;53.642;10.640;2022-11-11T08:13:34;15.50;89.90
44461;DHT22;30162;53.642;10.640;2022-11-11T08:16:07;15.50;89.70
44461;DHT22;30162;53.642;10.640;2022-11-11T08:18:33;15.60;89.50
44461;DHT22;30162;53.642;10.640;2022-11-11T08:20:59;15.60;89.40
44461;DHT22;30162;53.642;10.640;2022-11-11T08:23:25;15.50;89.60
44461;DHT22;30162;53.642;10.640;2022-11-11T08:26:04;15.40;89.90
44461;DHT22;30162;53.642;10.640;2022-11-11T08:28:31;15.40;90.00
44461;DHT22;30162;53.642;10.640;2022-11-11T08:30:58;15.50;89.70
44461;DHT22;30162;53.642;10.640;2022-11-11T08:33:24;15.50;89.70
44461;DHT22;30162;53.642;10.640;2022-11-11T08:35:50;15.40;89.90
44461;DHT22;30162;53.642;10.640;2022-11-11T08:38:19;15.10;90.20
44461;DHT22;30162;53.642;10.640;2022-11-11T08:40:44;15.20;90.50
44461;DHT22;30162;53.642;10.640;2022-11-11T08:43:10;15.20;90.40
44461;DHT22;30162;53.642;10.640;2022-11-11T08:45:35;15.30;90.60
44461;DHT22;30162;53.642;10.640;2022-11-11T08:48:01;15.30;90.40
44461;DHT22;30162;53.642;10.640;2022-11-11T08:50:26;15.50;90.10
44461;DHT22;30162;53.642;10.640;2022-11-11T08:52:52;15.60;90.10
44461;DHT22;30162;53.642;10.640;2022-11-11T08:55:18;15.70;90.10
44461;DHT22;30162;53.642;10.640;2022-11-11T08:57:44;15.50;90.20
44461;DHT22;30162;53.642;10.640;2022-11-11T09:00:11;15.70;90.10
44461;DHT22;30162;53.642;10.640;2022-11-11T09:02:37;15.80;90.10
44461;DHT22;30162;53.642;10.640;2022-11-11T09:05:03;15.50;90.20
44461;DHT22;30162;53.642;10.640;2022-11-11T09:07:29;15.50;90.10
44461;DHT22;30162;53.642;10.640;2022-11-11T09:09:55;15.20;90.60
44461;DHT22;30162;53.642;10.640;2022-11-11T09:12:20;15.20;90.60
44461;DHT22;30162;53.642;10.640;2022-11-11T09:14:46;15.50;90.70
44461;DHT22;30162;53.642;10.640;2022-11-11T09:17:12;15.60;90.40
44461;DHT22;30162;53.642;10.640;2022-11-11T09:19:38;15.80;90.20
44461;DHT22;30162;53.642;10.640;2022-11-11T09:22:03;15.60;90.30
44461;DHT22;30162;53.642;10.640;2022-11-11T09:24:30;15.20;90.60
44461;DHT22;30162;53.642;10.640;2022-11-11T09:26:55;15.30;90.80
44461;DHT22;30162;53.642;10.640;2022-11-11T09:29:21;15.20;90.80
44461;DHT22;30162;53.642;10.640;2022-11-11T09:31:46;15.30;90.70
44461;DHT22;30162;53.642;10.640;2022-11-11T09:34:13;14.90;90.80
44461;DHT22;30162;53.642;10.640;2022-11-11T09:36:38;15.00;91.20
44461;DHT22;30162;53.642;10.640;2022-11-11T09:39:04;15.40;91.10
44461;DHT22;30162;53.642;10.640;2022-11-11T09:44:01;15.30;90.80
44461;DHT22;30162;53.642;10.640;2022-11-11T09:46:39;15.60;90.60
44461;DHT22;30162;53.642;10.640;2022-11-11T09:49:28;15.70;90.30
44461;DHT22;30162;53.642;10.640;2022-11-11T09:52:17;15.80;90.30
44461;DHT22;30162;53.642;10.640;2022-11-11T09:55:04;15.50;90.70
44461;DHT22;30162;53.642;10.640;2022-11-11T09:57:45;15.70;90.50
44461;DHT22;30162;53.642;10.640;2022-11-11T10:00:20;15.80;90.30
44461;DHT22;30162;53.642;10.640;2022-11-11T10:02:56;16.00;90.10
44461;DHT22;30162;53.642;10.640;2022-11-11T10:05:42;16.10;89.80
44461;DHT22;30162;53.642;10.640;2022-11-11T10:08:25;16.00;89.60
44461;DHT22;30162;53.642;10.640;2022-11-11T10:10:51;16.00;89.90
44461;DHT22;30162;53.642;10.640;2022-11-11T10:13:32;15.70;90.20
44461;DHT22;30162;53.642;10.640;2022-11-11T10:21:31;15.80;90.20
44461;DHT22;30162;53.642;10.640;2022-11-11T10:24:01;16.10;90.00
44461;DHT22;30162;53.642;10.640;2022-11-11T10:26:36;16.30;89.80
44461;DHT22;30162;53.642;10.640;2022-11-11T10:29:09;16.30;89.40
44461;DHT22;30162;53.642;10.640;2022-11-11T10:31:37;16.20;89.70
44461;DHT22;30162;53.642;10.640;2022-11-11T10:34:04;16.10;89.50
44461;DHT22;30162;53.642;10.640;2022-11-11T10:36:49;16.00;89.70
44461;DHT22;30162;53.642;10.640;2022-11-11T10:39:30;16.00;89.70
44461;DHT22;30162;53.642;10.640;2022-11-11T10:41:58;16.00;89.70
44461;DHT22;30162;53.642;10.640;2022-11-11T10:44:26;15.50;90.40
44461;DHT22;30162;53.642;10.640;2022-11-11T10:47:18;15.60;90.50
44461;DHT22;30162;53.642;10.640;2022-11-11T10:50:00;15.30;90.70
44461;DHT22;30162;53.642;10.640;2022-11-11T10:52:37;15.50;90.80
44461;DHT22;30162;53.642;10.640;2022-11-11T10:55:18;15.80;90.40
44461;DHT22;30162;53.642;10.640;2022-11-11T10:57:54;16.00;90.20
44461;DHT22;30162;53.642;10.640;2022-11-11T11:00:22;16.00;89.60
44461;DHT22;30162;53.642;10.640;2022-11-11T11:05:26;16.00;90.10
44461;DHT22;30162;53.642;10.640;2022-11-11T11:07:57;16.10;90.10
44461;DHT22;30162;53.642;10.640;2022-11-11T11:10:42;16.20;89.70
44461;DHT22;30162;53.642;10.640;2022-11-11T11:13:17;16.10;89.70
44461;DHT22;30162;53.642;10.640;2022-11-11T11:15:47;16.10;89.40
44461;DHT22;30162;53.642;10.640;2022-11-11T11:18:15;16.10;90.00
44461;DHT22;30162;53.642;10.640;2022-11-11T11:23:42;16.20;89.60
44461;DHT22;30162;53.642;10.640;2022-11-11T11:26:11;16.10;89.00
44461;DHT22;30162;53.642;10.640;2022-11-11T11:28:59;16.20;88.90
44461;DHT22;30162;53.642;10.640;2022-11-11T11:31:37;16.00;89.30
44461;DHT22;30162;53.642;10.640;2022-11-11T11:34:03;16.00;89.40
44461;DHT22;30162;53.642;10.640;2022-11-11T11:36:29;16.00;88.30
44461;DHT22;30162;53.642;10.640;2022-11-11T11:38:55;16.00;88.10
44461;DHT22;30162;53.642;10.640;2022-11-11T11:41:40;15.70;88.80
44461;DHT22;30162;53.642;10.640;2022-11-11T11:44:32;15.90;88.90
44461;DHT22;30162;53.642;10.640;2022-11-11T11:47:11;15.90;88.10
44461;DHT22;30162;53.642;10.640;2022-11-11T11:52:57;16.00;87.90
44461;DHT22;30162;53.642;10.640;2022-11-11T11:55:50;15.60;87.60
44461;DHT22;30162;53.642;10.640;2022-11-11T11:58:33;16.00;87.60
44461;DHT22;30162;53.642;10.640;2022-11-11T12:04:36;16.10;86.30
44461;DHT22;30162;53.642;10.640;2022-11-11T12:27:58;16.00;86.70
44461;DHT22;30162;53.642;10.640;2022-11-11T12:30:26;16.10;86.00
44461;DHT22;30162;53.642;10.640;2022-11-11T12:35:56;15.70;87.40
44461;DHT22;30162;53.642;10.640;2022-11-11T12:41:36;15.70;87.20
44461;DHT22;30162;53.642;10.640;2022-11-11T12:44:06;15.70;87.00
44461;DHT22;30162;53.642;10.640;2022-11-11T12:55:23;15.30;87.10
44461;DHT22;30162;53.642;10.640;2022-11-11T12:58:18;14.90;88.40
44461;DHT22;30162;53.642;10.640;2022-11-11T13:01:00;15.40;87.90
44461;DHT22;30162;53.642;10.640;2022-11-11T13:03:48;15.50;87.80
44461;DHT22;30162;53.642;10.640;2022-11-11T13:12:33;15.80;87.80
44461;DHT22;30162;53.642;10.640;2022-11-11T13:17:40;15.30;87.40
44461;DHT22;30162;53.642;10.640;2022-11-11T13:20:33;15.10;88.20
44461;DHT22;30162;53.642;10.640;2022-11-11T13:23:00;15.20;88.80
44461;DHT22;30162;53.642;10.640;2022-11-11T13:25:29;15.40;88.20
44461;DHT22;30162;53.642;10.640;2022-11-11T13:28:13;15.30;88.30
44461;DHT22;30162;53.642;10.640;2022-11-11T13:30:48;15.50;88.10
44461;DHT22;30162;53.642;10.640;2022-11-11T13:33:20;15.70;87.40
44461;DHT22;30162;53.642;10.640;2022-11-11T13:35:59;15.80;86.90
44461;DHT22;30162;53.642;10.640;2022-11-11T13:38:29;15.80;86.80
44461;DHT22;30162;53.642;10.640;2022-11-11T13:40:58;15.50;87.20
44461;DHT22;30162;53.642;10.640;2022-11-11T13:43:40;15.50;87.30
44461;DHT22;30162;53.642;10.640;2022-11-11T13:46:27;15.50;86.90
44461;DHT22;30162;53.642;10.640;2022-11-11T13:48:55;15.60;87.40
44461;DHT22;30162;53.642;10.640;2022-11-11T13:54:00;15.90;87.10
44461;DHT22;30162;53.642;10.640;2022-11-11T13:56:36;15.80;87.00
44461;DHT22;30162;53.642;10.640;2022-11-11T13:59:03;16.00;86.60
44461;DHT22;30162;53.642;10.640;2022-11-11T14:01:35;16.10;85.90
44461;DHT22;30162;53.642;10.640;2022-11-11T14:04:04;16.10;85.80
44461;DHT22;30162;53.642;10.640;2022-11-11T14:08:58;15.80;87.00
44461;DHT22;30162;53.642;10.640;2022-11-11T14:13:57;15.90;86.70
44461;DHT22;30162;53.642;10.640;2022-11-11T14:18:58;15.60;87.10
44461;DHT22;30162;53.642;10.640;2022-11-11T14:21:56;15.70;87.40
44461;DHT22;30162;53.642;10.640;2022-11-11T14:24:35;15.80;87.00
44461;DHT22;30162;53.642;10.640;2022-11-11T14:27:13;15.80;87.00
44461;DHT22;30162;53.642;10.640;2022-11-11T14:29:54;15.90;87.20
44461;DHT22;30162;53.642;10.640;2022-11-11T14:32:52;16.00;86.70
44461;DHT22;30162;53.642;10.640;2022-11-11T14:35:49;15.90;87.00
44461;DHT22;30162;53.642;10.640;2022-11-11T14:40:54;15.30;87.60
44461;DHT22;30162;53.642;10.640;2022-11-11T14:43:35;15.20;88.20
44461;DHT22;30162;53.642;10.640;2022-11-11T14:46:05;15.40;88.30
44461;DHT22;30162;53.642;10.640;2022-11-11T14:51:50;15.50;88.00
44461;DHT22;30162;53.642;10.640;2022-11-11T14:54:23;15.70;87.40
44461;DHT22;30162;53.642;10.640;2022-11-11T14:56:56;15.80;87.00
44461;DHT22;30162;53.642;10.640;2022-11-11T14:59:23;15.80;87.50
44461;DHT22;30162;53.642;10.640;2022-11-11T15:01:53;15.20;88.00
44461;DHT22;30162;53.642;10.640;2022-11-11T15:04:19;15.30;88.80
44461;DHT22;30162;53.642;10.640;2022-11-11T15:06:51;15.50;88.60
44461;DHT22;30162;53.642;10.640;2022-11-11T15:09:32;15.70;88.10
44461;DHT22;30162;53.642;10.640;2022-11-11T15:17:30;15.90;87.90
44461;DHT22;30162;53.642;10.640;2022-11-11T15:34:05;15.80;88.70
44461;DHT22;30162;53.642;10.640;2022-11-11T15:36:44;15.90;88.60
44461;DHT22;30162;53.642;10.640;2022-11-11T15:39:15;15.80;89.40
44461;DHT22;30162;53.642;10.640;2022-11-11T15:41:46;15.70;89.00
44461;DHT22;30162;53.642;10.640;2022-11-11T15:44:18;15.80;89.30
44461;DHT22;30162;53.642;10.640;2022-11-11T15:46:45;15.90;89.40
44461;DHT22;30162;53.642;10.640;2022-11-11T15:49:41;15.90;89.00
44461;DHT22;30162;53.642;10.640;2022-11-11T15:54:50;15.80;89.30
44461;DHT22;30162;53.642;10.640;2022-11-11T15:57:33;15.90;89.20
44461;DHT22;30162;53.642;10.640;2022-11-11T16:00:01;15.70;89.30
44461;DHT22;30162;53.642;10.640;2022-11-11T16:02:34;15.70;89.70
44461;DHT22;30162;53.642;10.640;2022-11-11T16:05:09;15.70;89.90
44461;DHT22;30162;53.642;10.640;2022-11-11T16:07:41;15.70;90.00
44461;DHT22;30162;53.642;10.640;2022-11-11T16:10:45;15.80;89.70
44461;DHT22;30162;53.642;10.640;2022-11-11T16:13:25;15.80;89.60
44461;DHT22;30162;53.642;10.640;2022-11-11T16:15:57;15.90;89.70
44461;DHT22;30162;53.642;10.640;2022-11-11T16:18:44;16.00;89.00
44461;DHT22;30162;53.642;10.640;2022-11-11T16:21:20;15.90;89.70
44461;DHT22;30162;53.642;10.640;2022-11-11T16:23:47;15.90;89.60
44461;DHT22;30162;53.642;10.640;2022-11-11T16:26:14;15.90;89.80
44461;DHT22;30162;53.642;10.640;2022-11-11T16:28:50;15.90;89.70
44461;DHT22;30162;53.642;10.640;2022-11-11T16:37:08;15.70;90.10
44461;DHT22;30162;53.642;10.640;2022-11-11T16:39:34;15.80;90.00
44461;DHT22;30162;53.642;10.640;2022-11-11T16:42:05;15.80;90.10
44461;DHT22;30162;53.642;10.640;2022-11-11T16:44:38;15.80;89.90
44461;DHT22;30162;53.642;10.640;2022-11-11T16:47:05;15.80;90.10
44461;DHT22;30162;53.642;10.640;2022-11-11T16:49:39;15.90;90.00
44461;DHT22;30162;53.642;10.640;2022-11-11T16:52:13;15.90;90.00
44461;DHT22;30162;53.642;10.640;2022-11-11T16:54:48;15.80;90.00
44461;DHT22;30162;53.642;10.640;2022-11-11T16:57:25;15.80;89.80
44461;DHT22;30162;53.642;10.640;2022-11-11T16:59:55;15.80;90.00
44461;DHT22;30162;53.642;10.640;2022-11-11T17:02:23;15.80;90.00
44461;DHT22;30162;53.642;10.640;2022-11-11T17:04:55;15.70;90.10
44461;DHT22;30162;53.642;10.640;2022-11-11T17:07:35;15.70;90.10
44461;DHT22;30162;53.642;10.640;2022-11-11T17:12:34;15.70;90.30
44461;DHT22;30162;53.642;10.640;2022-11-11T17:15:00;15.70;90.20
44461;DHT22;30162;53.642;10.640;2022-11-11T17:17:29;15.60;90.30
44461;DHT22;30162;53.642;10.640;2022-11-11T17:20:00;15.60;90.40
44461;DHT22;30162;53.642;10.640;2022-11-11T17:22:27;15.60;90.40
44461;DHT22;30162;53.642;10.640;2022-11-11T17:24:52;15.60;90.50
44461;DHT22;30162;53.642;10.640;2022-11-11T17:27:18;15.50;90.40
44461;DHT22;30162;53.642;10.640;2022-11-11T17:29:43;15.50;90.40
44461;DHT22;30162;53.642;10.640;2022-11-11T17:32:09;15.50;90.60
44461;DHT22;30162;53.642;10.640;2022-11-11T17:34:35;15.40;90.80
44461;DHT22;30162;53.642;10.640;2022-11-11T17:37:00;15.50;90.70
44461;DHT22;30162;53.642;10.640;2022-11-11T17:39:26;15.50;90.70
44461;DHT22;30162;53.642;10.640;2022-11-11T17:41:52;15.40;90.50
44461;DHT22;30162;53.642;10.640;2022-11-11T17:44:17;15.40;90.80
44461;DHT22;30162;53.642;10.640;2022-11-11T17:46:43;15.40;90.60